Time;durP1;ratioP1;P1;durP2;ratioP2;P2;SDS_P1;SDS_P2;PMS_P1;PMS_P2;Temp;Humidity;BMP_temperature;BMP_pressure;BME280_temperature;BME280_humidity;BME280_pressure;Samples;Min_cycle;Max_cycle;Signal;HPM_P1;HPM_P2
2021/06/06 00:00:58;;;;;;;0.38;0.38;;;17.40;59.30;;;;;;5113705;28;20131;-65
2021/06/06 00:03:35;;;;;;;0.20;0.20;;;17.40;59.40;;;;;;5118416;27;20043;-66
2021/06/06 00:06:13;;;;;;;0.15;0.15;;;17.40;59.40;;;;;;5117114;27;20122;-65
2021/06/06 00:08:40;;;;;;;0.20;0.20;;;17.40;59.60;;;;;;5112500;28;20130;-66
2021/06/06 00:11:35;;;;;;;0.10;0.10;;;17.40;59.60;;;;;;5113303;28;20043;-65
2021/06/06 00:14:04;;;;;;;0.17;0.17;;;17.30;59.60;;;;;;5111126;28;20130;-66
2021/06/06 00:16:46;;;;;;;0.20;0.20;;;17.40;60.00;;;;;;5121738;27;20054;-65
2021/06/06 00:19:13;;;;;;;0.30;0.30;;;17.30;59.90;;;;;;5094771;28;20043;-65
2021/06/06 00:21:40;;;;;;;0.30;0.20;;;17.30;60.10;;;;;;5112839;28;20051;-65
2021/06/06 00:24:10;;;;;;;0.20;0.20;;;17.30;60.10;;;;;;5113312;28;20079;-66
2021/06/06 00:26:37;;;;;;;0.15;0.15;;;17.30;60.00;;;;;;5112642;28;20615;-65
2021/06/06 00:29:05;;;;;;;0.40;0.17;;;17.30;60.10;;;;;;5112841;28;20043;-65
2021/06/06 00:31:31;;;;;;;0.20;0.20;;;17.20;60.20;;;;;;5113270;28;20075;-66
2021/06/06 00:33:57;;;;;;;0.30;0.30;;;17.30;60.20;;;;;;5112975;28;20075;-65
2021/06/06 00:36:24;;;;;;;0.32;0.32;;;17.20;60.40;;;;;;5113027;28;20423;-65
2021/06/06 00:38:50;;;;;;;0.60;0.20;;;17.20;60.40;;;;;;5113094;28;20040;-65
2021/06/06 00:41:20;;;;;;;0.55;0.40;;;17.20;60.50;;;;;;5112347;28;20075;-65
2021/06/06 00:43:46;;;;;;;0.70;0.20;;;17.20;60.60;;;;;;5112691;28;20181;-65
2021/06/06 00:46:15;;;;;;;0.25;0.25;;;17.20;60.60;;;;;;5112930;28;20398;-65
2021/06/06 00:48:42;;;;;;;0.75;0.30;;;17.20;60.60;;;;;;5112824;28;20043;-65
2021/06/06 00:51:49;;;;;;;0.43;0.38;;;17.20;60.80;;;;;;5112342;28;20120;-66
2021/06/06 00:54:23;;;;;;;0.30;0.30;;;17.10;60.90;;;;;;5112140;28;20518;-65
2021/06/06 00:56:58;;;;;;;0.20;0.20;;;17.10;61.00;;;;;;5112731;28;20130;-65
2021/06/06 00:59:26;;;;;;;0.20;0.20;;;17.10;61.00;;;;;;5112585;28;20443;-65
2021/06/06 01:01:53;;;;;;;0.20;0.20;;;17.10;61.00;;;;;;5112278;28;20426;-65
2021/06/06 01:04:20;;;;;;;0.38;0.30;;;17.10;61.00;;;;;;5112488;28;20510;-65
2021/06/06 01:06:51;;;;;;;0.40;0.40;;;17.10;61.00;;;;;;5094200;28;20530;-65
2021/06/06 01:09:21;;;;;;;0.20;0.20;;;17.10;61.10;;;;;;5129230;27;20055;-66
2021/06/06 01:12:08;;;;;;;0.28;0.28;;;17.10;61.10;;;;;;5132741;27;20047;-65
2021/06/06 01:14:47;;;;;;;0.30;0.30;;;17.10;61.10;;;;;;5132989;27;20043;-66
2021/06/06 01:17:24;;;;;;;0.28;0.28;;;17.10;61.10;;;;;;5132529;27;20414;-65
2021/06/06 01:19:57;;;;;;;0.30;0.30;;;17.10;61.10;;;;;;5132726;27;20043;-65
2021/06/06 01:22:29;;;;;;;0.20;0.20;;;17.10;61.20;;;;;;5098850;28;20050;-65
2021/06/06 01:25:17;;;;;;;0.17;0.10;;;17.10;61.20;;;;;;5112320;28;20082;-65
2021/06/06 01:27:50;;;;;;;0.40;0.40;;;17.10;61.10;;;;;;5100772;28;20051;-65
2021/06/06 01:30:24;;;;;;;0.30;0.30;;;17.00;61.20;;;;;;5119878;27;20047;-66
2021/06/06 01:33:00;;;;;;;0.45;0.40;;;17.00;61.20;;;;;;5112151;28;20062;-65
2021/06/06 01:35:32;;;;;;;0.40;0.40;;;17.00;61.40;;;;;;5112026;28;20059;-65
2021/06/06 01:38:17;;;;;;;0.40;0.40;;;17.00;61.60;;;;;;5093523;28;20079;-65
2021/06/06 01:40:46;;;;;;;0.25;0.25;;;16.90;61.90;;;;;;5111788;28;20048;-65
2021/06/06 01:43:18;;;;;;;0.20;0.20;;;16.90;61.90;;;;;;5111779;28;20052;-65
2021/06/06 01:45:49;;;;;;;0.20;0.13;;;16.80;61.80;;;;;;5109036;28;20046;-65
2021/06/06 01:48:16;;;;;;;0.30;0.30;;;16.80;61.70;;;;;;5111938;28;20063;-65
2021/06/06 01:50:49;;;;;;;0.20;0.20;;;16.70;61.60;;;;;;5111568;28;20127;-65
2021/06/06 01:53:18;;;;;;;0.10;0.10;;;16.70;61.70;;;;;;5111080;28;20043;-65
2021/06/06 01:55:48;;;;;;;0.20;0.20;;;16.70;61.70;;;;;;5124516;28;20047;-65
2021/06/06 01:58:16;;;;;;;0.30;0.30;;;16.70;61.90;;;;;;5111901;28;20043;-66
2021/06/06 02:00:46;;;;;;;0.15;0.15;;;16.60;61.90;;;;;;5112175;28;20129;-66
2021/06/06 02:03:12;;;;;;;0.20;0.20;;;16.70;62.10;;;;;;5111657;28;20046;-65
2021/06/06 02:05:39;;;;;;;0.20;0.20;;;16.60;62.10;;;;;;5124043;28;20532;-66
2021/06/06 02:08:10;;;;;;;0.70;0.35;;;16.60;62.20;;;;;;5111823;28;20410;-65
2021/06/06 02:10:57;;;;;;;0.50;0.40;;;16.60;62.30;;;;;;5131944;28;20210;-65
2021/06/06 02:13:32;;;;;;;0.15;0.15;;;16.50;62.20;;;;;;5132249;28;20047;-65
2021/06/06 02:16:02;;;;;;;0.28;0.28;;;16.50;62.30;;;;;;5132340;28;20138;-65
2021/06/06 02:18:29;;;;;;;0.20;0.20;;;16.50;62.30;;;;;;5132095;28;20103;-66
2021/06/06 02:20:56;;;;;;;0.22;0.22;;;16.50;62.50;;;;;;5131712;28;20054;-66
2021/06/06 02:23:29;;;;;;;0.30;0.30;;;16.50;62.60;;;;;;5131754;28;20054;-66
2021/06/06 02:26:07;;;;;;;0.13;0.00;;;16.40;62.60;;;;;;5132351;28;20118;-66
2021/06/06 02:28:57;;;;;;;0.50;0.50;;;16.40;62.70;;;;;;5131884;28;20126;-65
2021/06/06 02:31:32;;;;;;;0.20;0.20;;;16.40;62.80;;;;;;5122897;28;20047;-65
2021/06/06 02:34:11;;;;;;;0.20;0.20;;;16.40;63.10;;;;;;5130730;28;20145;-65
2021/06/06 02:36:42;;;;;;;0.20;0.20;;;16.30;63.30;;;;;;5132184;28;20082;-65
2021/06/06 02:39:22;;;;;;;0.50;0.30;;;16.30;63.20;;;;;;5131791;28;20657;-65
2021/06/06 02:41:51;;;;;;;;;;;16.30;64.40;;;;;;5132432;28;20047;-65
2021/06/06 02:44:23;;;;;;;0.65;0.40;;;16.30;63.50;;;;;;5131783;28;19920;-65
2021/06/06 02:46:51;;;;;;;0.68;0.40;;;16.30;63.40;;;;;;5129405;28;20058;-66
2021/06/06 02:49:23;;;;;;;0.20;0.20;;;16.30;63.40;;;;;;5116062;27;20051;-65
2021/06/06 02:52:03;;;;;;;0.50;0.40;;;16.20;63.50;;;;;;5135025;27;20089;-66
2021/06/06 02:54:43;;;;;;;0.85;0.30;;;16.20;63.80;;;;;;5129167;27;20176;-65
2021/06/06 02:57:12;;;;;;;0.40;0.40;;;16.20;64.20;;;;;;5117769;27;20047;-65
2021/06/06 02:59:53;;;;;;;0.30;0.30;;;16.10;64.20;;;;;;5125809;27;20497;-65
2021/06/06 03:02:24;;;;;;;0.20;0.20;;;16.10;64.20;;;;;;5114316;28;20515;-65
2021/06/06 03:04:59;;;;;;;0.20;0.20;;;16.10;64.40;;;;;;5115177;28;20051;-65
2021/06/06 03:07:45;;;;;;;0.35;0.30;;;16.10;64.50;;;;;;5129210;27;20549;-65
2021/06/06 03:10:22;;;;;;;0.32;0.32;;;16.00;64.70;;;;;;5114768;28;20100;-66
2021/06/06 03:12:58;;;;;;;0.30;0.30;;;16.00;64.60;;;;;;5114665;28;20150;-66
2021/06/06 03:15:36;;;;;;;0.20;0.20;;;16.00;64.70;;;;;;5114532;28;20048;-65
2021/06/06 03:18:13;;;;;;;0.40;0.30;;;16.00;64.70;;;;;;5114862;28;20047;-66
2021/06/06 03:20:50;;;;;;;0.20;0.20;;;16.00;64.70;;;;;;5096760;28;20054;-65
2021/06/06 03:23:26;;;;;;;0.10;0.10;;;16.00;64.70;;;;;;5114103;28;20036;-65
2021/06/06 03:26:02;;;;;;;0.20;0.20;;;16.00;64.70;;;;;;5114345;28;20047;-65
2021/06/06 03:28:40;;;;;;;0.13;0.13;;;16.00;64.80;;;;;;5114181;28;20144;-65
2021/06/06 03:31:30;;;;;;;0.13;0.13;;;15.90;64.90;;;;;;5110784;28;20491;-65
2021/06/06 03:34:02;;;;;;;0.10;0.10;;;15.90;64.90;;;;;;5114271;28;20055;-65
2021/06/06 03:36:36;;;;;;;0.30;0.30;;;15.90;64.90;;;;;;5114089;28;20050;-65
2021/06/06 03:39:07;;;;;;;0.30;0.30;;;15.90;65.10;;;;;;5114173;28;20411;-65
2021/06/06 03:41:35;;;;;;;0.20;0.20;;;15.90;65.10;;;;;;5114123;28;20502;-65
2021/06/06 03:44:04;;;;;;;0.30;0.30;;;15.90;65.00;;;;;;5114182;28;20043;-66
2021/06/06 03:46:34;;;;;;;0.30;0.30;;;15.90;65.20;;;;;;5113145;28;20414;-65
2021/06/06 03:49:05;;;;;;;0.30;0.30;;;15.90;65.20;;;;;;5113909;28;20415;-65
2021/06/06 03:51:32;;;;;;;0.22;0.22;;;15.90;65.20;;;;;;5114022;28;20082;-65
2021/06/06 03:53:59;;;;;;;0.25;0.25;;;15.90;65.20;;;;;;5114102;28;20079;-65
2021/06/06 03:56:26;;;;;;;0.22;0.22;;;15.90;65.20;;;;;;5113486;28;20434;-65
2021/06/06 03:58:53;;;;;;;0.30;0.30;;;15.90;65.30;;;;;;5113526;28;20044;-68
2021/06/06 04:01:19;;;;;;;0.32;0.28;;;15.90;65.30;;;;;;5112894;28;20059;-65
2021/06/06 04:03:46;;;;;;;0.20;0.20;;;15.90;65.30;;;;;;5113216;28;20155;-64
2021/06/06 04:06:13;;;;;;;0.20;0.20;;;15.90;65.20;;;;;;5113055;28;20565;-69
2021/06/06 04:08:39;;;;;;;0.20;0.20;;;16.00;65.30;;;;;;5122744;27;20047;-65
2021/06/06 04:11:06;;;;;;;0.10;0.10;;;15.90;65.20;;;;;;5113675;28;20118;-68
2021/06/06 04:13:33;;;;;;;0.20;0.20;;;16.00;65.30;;;;;;5113028;28;20134;-66
2021/06/06 04:15:59;;;;;;;0.32;0.32;;;15.90;65.20;;;;;;5113512;28;20123;-65
2021/06/06 04:18:29;;;;;;;0.20;0.20;;;16.00;65.20;;;;;;5113222;28;20180;-65
2021/06/06 04:20:57;;;;;;;0.17;0.17;;;16.00;65.20;;;;;;5113540;28;20047;-65
2021/06/06 04:23:24;;;;;;;0.22;0.22;;;16.00;65.20;;;;;;5113418;28;20491;-65
2021/06/06 04:25:51;;;;;;;0.13;0.10;;;15.90;65.10;;;;;;5113263;28;20051;-65
2021/06/06 04:28:20;;;;;;;0.30;0.30;;;16.00;65.20;;;;;;5112920;28;20126;-65
2021/06/06 04:30:47;;;;;;;0.22;0.20;;;16.00;65.10;;;;;;5112716;28;20475;-65
2021/06/06 04:33:14;;;;;;;0.22;0.22;;;16.00;65.20;;;;;;5113047;28;20060;-65
2021/06/06 04:35:42;;;;;;;0.40;0.40;;;16.00;65.10;;;;;;5113035;28;20130;-65
2021/06/06 04:38:12;;;;;;;0.47;0.30;;;16.00;65.20;;;;;;5113093;28;20159;-65
2021/06/06 04:40:39;;;;;;;0.22;0.22;;;16.00;65.00;;;;;;5112865;28;20143;-65
2021/06/06 04:43:07;;;;;;;0.30;0.20;;;16.00;65.10;;;;;;5112530;28;20593;-65
2021/06/06 04:45:34;;;;;;;0.17;0.17;;;16.00;65.20;;;;;;5112874;28;20048;-65
2021/06/06 04:48:26;;;;;;;0.20;0.20;;;16.00;65.20;;;;;;5112607;28;20048;-65
2021/06/06 04:50:55;;;;;;;0.38;0.30;;;15.90;65.20;;;;;;5112917;28;20127;-65
2021/06/06 04:53:21;;;;;;;0.30;0.30;;;15.90;65.00;;;;;;5112753;28;20548;-65
2021/06/06 04:55:49;;;;;;;0.40;0.20;;;15.90;65.20;;;;;;5112826;28;20051;-65
2021/06/06 04:58:19;;;;;;;0.20;0.20;;;15.90;65.10;;;;;;5112167;28;20127;-65
2021/06/06 05:00:46;;;;;;;0.40;0.33;;;16.00;65.20;;;;;;5112565;28;20857;-65
2021/06/06 05:03:13;;;;;;;0.28;0.28;;;15.90;65.30;;;;;;5112446;28;20104;-65
2021/06/06 05:05:40;;;;;;;0.28;0.28;;;15.80;65.30;;;;;;5112504;28;20401;-65
2021/06/06 05:08:07;;;;;;;0.22;0.22;;;15.80;65.50;;;;;;5112787;28;20064;-68
2021/06/06 05:10:36;;;;;;;0.30;0.30;;;15.80;65.40;;;;;;5112155;28;20138;-65
2021/06/06 05:13:03;;;;;;;0.50;0.45;;;15.80;65.40;;;;;;5111451;28;20136;-65
2021/06/06 05:15:30;;;;;;;0.22;0.20;;;15.80;65.70;;;;;;5112244;28;20058;-65
2021/06/06 05:17:56;;;;;;;0.40;0.40;;;15.80;65.70;;;;;;5132854;27;20092;-65
2021/06/06 05:20:27;;;;;;;0.20;0.20;;;15.80;65.70;;;;;;5132641;27;20099;-65
2021/06/06 05:22:53;;;;;;;0.30;0.30;;;15.80;65.70;;;;;;5132327;27;20598;-65
2021/06/06 05:25:20;;;;;;;0.20;0.20;;;15.80;65.70;;;;;;5132895;27;20130;-65
2021/06/06 05:27:46;;;;;;;0.20;0.13;;;15.80;65.80;;;;;;5132476;27;20043;-65
2021/06/06 05:30:18;;;;;;;0.20;0.20;;;15.80;65.70;;;;;;5120864;27;20499;-69
2021/06/06 05:32:44;;;;;;;0.20;0.20;;;15.90;65.70;;;;;;5130231;27;20071;-65
2021/06/06 05:35:11;;;;;;;0.30;0.30;;;15.90;65.60;;;;;;5132893;27;20126;-65
2021/06/06 05:37:38;;;;;;;0.15;0.15;;;15.90;65.70;;;;;;5132500;27;20074;-65
2021/06/06 05:40:05;;;;;;;0.45;0.30;;;15.90;65.70;;;;;;5132724;27;20118;-65
2021/06/06 05:42:31;;;;;;;0.20;0.20;;;16.00;65.80;;;;;;5131577;27;20410;-65
2021/06/06 05:44:57;;;;;;;0.20;0.20;;;16.00;65.90;;;;;;5114256;28;20047;-65
2021/06/06 05:47:24;;;;;;;0.30;0.30;;;16.00;65.80;;;;;;5126636;28;20130;-65
2021/06/06 05:49:50;;;;;;;0.30;0.30;;;16.00;66.00;;;;;;5132577;28;20119;-65
2021/06/06 05:52:16;;;;;;;0.30;0.25;;;16.00;66.20;;;;;;5132830;28;20132;-65
2021/06/06 05:54:43;;;;;;;0.20;0.20;;;16.00;66.40;;;;;;5132287;28;20053;-65
2021/06/06 05:57:09;;;;;;;0.30;0.30;;;16.10;66.30;;;;;;5132299;28;20142;-65
2021/06/06 05:59:35;;;;;;;0.40;0.40;;;16.10;66.30;;;;;;5120897;28;20063;-66
2021/06/06 06:02:02;;;;;;;0.10;0.10;;;16.10;67.30;;;;;;5129866;28;20062;-65
2021/06/06 06:04:28;;;;;;;0.28;0.28;;;16.20;66.30;;;;;;5132107;28;20126;-65
2021/06/06 06:06:55;;;;;;;0.22;0.20;;;16.20;66.30;;;;;;5132290;28;20051;-65
2021/06/06 06:09:21;;;;;;;0.30;0.22;;;16.30;66.30;;;;;;5106174;28;20177;-65
2021/06/06 06:11:47;;;;;;;0.25;0.25;;;16.30;66.50;;;;;;5111597;28;20043;-65
2021/06/06 06:14:14;;;;;;;0.17;0.17;;;16.40;66.70;;;;;;5111654;28;20122;-65
2021/06/06 06:16:40;;;;;;;0.25;0.25;;;16.50;66.50;;;;;;5111291;28;20173;-65
2021/06/06 06:19:09;;;;;;;0.28;0.20;;;16.60;66.30;;;;;;5111571;28;20055;-65
2021/06/06 06:21:37;;;;;;;0.22;0.22;;;16.70;66.20;;;;;;5093426;28;20130;-65
2021/06/06 06:24:04;;;;;;;0.28;0.28;;;16.80;65.90;;;;;;5111525;28;20048;-66
2021/06/06 06:26:31;;;;;;;0.15;0.15;;;16.90;65.70;;;;;;5115397;28;20454;-65
2021/06/06 06:28:58;;;;;;;0.20;0.20;;;17.00;65.60;;;;;;5115140;28;20206;-65
2021/06/06 06:31:24;;;;;;;0.30;0.20;;;17.10;65.50;;;;;;5115324;28;20123;-66
2021/06/06 06:33:51;;;;;;;0.10;0.10;;;17.10;65.20;;;;;;5115365;28;20055;-65
2021/06/06 06:36:22;;;;;;;0.15;0.15;;;17.20;65.10;;;;;;5115385;28;20055;-66
2021/06/06 06:38:52;;;;;;;0.20;0.20;;;17.20;65.00;;;;;;5115094;28;20520;-65
2021/06/06 06:41:20;;;;;;;;;;;17.30;65.00;;;;;;5115798;28;20208;-65
2021/06/06 06:43:46;;;;;;;0.45;0.45;;;17.40;64.70;;;;;;5115071;28;20002;-65
2021/06/06 06:46:13;;;;;;;0.52;0.30;;;17.50;64.10;;;;;;5115212;28;20162;-65
2021/06/06 06:48:40;;;;;;;0.20;0.20;;;17.50;63.70;;;;;;5114659;28;20079;-65
2021/06/06 06:51:07;;;;;;;0.45;0.45;;;17.60;63.60;;;;;;5115183;28;20039;-65
2021/06/06 06:53:34;;;;;;;0.40;0.40;;;17.70;63.20;;;;;;5096149;28;20054;-66
2021/06/06 06:56:00;;;;;;;0.43;0.30;;;17.80;62.90;;;;;;5115192;28;20058;-65
2021/06/06 06:58:27;;;;;;;0.10;0.10;;;17.80;62.90;;;;;;5114900;28;20514;-66
2021/06/06 07:00:54;;;;;;;0.17;0.17;;;17.90;62.90;;;;;;5115028;28;20083;-65
2021/06/06 07:03:27;;;;;;;0.10;0.10;;;18.00;62.90;;;;;;5114481;28;20094;-65
2021/06/06 07:05:54;;;;;;;0.30;0.30;;;18.10;63.80;;;;;;5114928;28;20121;-66
2021/06/06 07:08:27;;;;;;;0.30;0.30;;;18.20;62.70;;;;;;5113990;28;20177;-65
2021/06/06 07:10:54;;;;;;;0.20;0.20;;;18.20;61.90;;;;;;5114257;27;20050;-66
2021/06/06 07:13:21;;;;;;;0.45;0.45;;;18.20;61.10;;;;;;5116718;27;20118;-65
2021/06/06 07:15:49;;;;;;;0.30;0.30;;;18.20;60.50;;;;;;5115234;27;20470;-65
2021/06/06 07:18:20;;;;;;;0.20;0.20;;;18.30;60.60;;;;;;5111865;27;20131;-65
2021/06/06 07:20:50;;;;;;;0.13;0.13;;;18.30;60.80;;;;;;5111373;27;20122;-65
2021/06/06 07:23:18;;;;;;;0.50;0.50;;;18.40;60.80;;;;;;5132589;27;20047;-65
2021/06/06 07:25:45;;;;;;;0.50;0.40;;;18.40;60.30;;;;;;5130245;27;20050;-66
2021/06/06 07:28:17;;;;;;;0.25;0.25;;;18.40;59.90;;;;;;5132999;27;20437;-65
2021/06/06 07:30:47;;;;;;;0.40;0.40;;;18.40;60.20;;;;;;5117538;27;20047;-66
2021/06/06 07:33:21;;;;;;;0.20;0.20;;;18.50;60.50;;;;;;5134243;27;20458;-65
2021/06/06 07:35:48;;;;;;;0.40;0.40;;;18.50;60.60;;;;;;5115194;27;20251;-66
2021/06/06 07:38:15;;;;;;;0.32;0.32;;;18.60;59.90;;;;;;5110177;27;20131;-67
2021/06/06 07:40:44;;;;;;;0.43;0.43;;;18.60;60.00;;;;;;5109573;27;20055;-66
2021/06/06 07:43:11;;;;;;;0.20;0.20;;;18.70;60.30;;;;;;5110984;27;20044;-67
2021/06/06 07:45:38;;;;;;;0.30;0.30;;;18.80;60.50;;;;;;5108815;27;20047;-67
2021/06/06 07:48:05;;;;;;;0.30;0.22;;;19.00;60.40;;;;;;5115540;27;20169;-66
2021/06/06 07:50:34;;;;;;;0.50;0.40;;;19.00;58.80;;;;;;5107126;27;20178;-67
2021/06/06 07:53:01;;;;;;;0.30;0.20;;;19.00;58.20;;;;;;5098472;27;20091;-67
2021/06/06 07:55:28;;;;;;;0.40;0.40;;;19.10;58.40;;;;;;5097366;27;20071;-66
2021/06/06 07:57:55;;;;;;;0.50;0.30;;;19.20;58.40;;;;;;5100453;27;20065;-66
2021/06/06 08:00:25;;;;;;;0.57;0.35;;;19.30;58.10;;;;;;5094960;28;20135;-67
2021/06/06 08:02:51;;;;;;;0.55;0.40;;;19.30;57.90;;;;;;5096537;28;20043;-68
2021/06/06 08:05:18;;;;;;;0.50;0.40;;;19.40;57.10;;;;;;5093499;28;20158;-66
2021/06/06 08:07:45;;;;;;;0.38;0.38;;;19.40;56.90;;;;;;5091910;28;20079;-68
2021/06/06 08:10:15;;;;;;;0.40;0.40;;;19.60;57.30;;;;;;5106875;28;20475;-66
2021/06/06 08:12:41;;;;;;;0.73;0.50;;;19.70;57.60;;;;;;5119929;27;20103;-66
2021/06/06 08:15:09;;;;;;;0.63;0.30;;;19.90;57.00;;;;;;5132177;27;20151;-66
2021/06/06 08:17:36;;;;;;;0.40;0.40;;;20.00;57.00;;;;;;5131941;27;20127;-67
2021/06/06 08:20:06;;;;;;;0.40;0.40;;;20.20;56.20;;;;;;5114979;27;20055;-67
2021/06/06 08:22:33;;;;;;;0.55;0.30;;;20.20;55.60;;;;;;5108721;27;20066;-67
2021/06/06 08:24:59;;;;;;;0.20;0.20;;;20.20;55.30;;;;;;5111110;27;20040;-66
2021/06/06 08:27:26;;;;;;;0.22;0.22;;;20.30;55.00;;;;;;5114643;27;20118;-67
2021/06/06 08:29:53;;;;;;;0.38;0.38;;;20.40;55.20;;;;;;5111346;28;20126;-67
2021/06/06 08:32:19;;;;;;;0.30;0.20;;;20.40;54.50;;;;;;5112059;27;20043;-67
2021/06/06 08:34:47;;;;;;;0.30;0.10;;;20.50;54.90;;;;;;5110875;28;20126;-68
2021/06/06 08:37:13;;;;;;;0.30;0.30;;;20.50;54.80;;;;;;5106343;27;20109;-67
2021/06/06 08:39:40;;;;;;;0.43;0.30;;;20.60;54.80;;;;;;5120739;27;20048;-67
2021/06/06 08:42:19;;;;;;;0.30;0.30;;;20.70;54.80;;;;;;5111740;27;20050;-67
2021/06/06 08:44:56;;;;;;;0.30;0.30;;;20.90;54.90;;;;;;5114475;27;20088;-67
2021/06/06 08:47:27;;;;;;;0.30;0.30;;;21.20;54.40;;;;;;5112890;27;20079;-67
2021/06/06 08:50:00;;;;;;;0.45;0.30;;;21.30;54.20;;;;;;5110954;27;20047;-66
2021/06/06 08:52:34;;;;;;;0.30;0.25;;;21.60;53.80;;;;;;5109706;27;20122;-65
2021/06/06 08:55:27;;;;;;;0.20;0.20;;;21.70;52.80;;;;;;5112464;27;20054;-66
2021/06/06 08:58:06;;;;;;;0.40;0.40;;;21.80;52.30;;;;;;5109161;27;20165;-66
2021/06/06 09:00:36;;;;;;;0.20;0.20;;;22.00;52.70;;;;;;5110558;28;20107;-66
2021/06/06 09:03:08;;;;;;;0.20;0.20;;;22.20;51.90;;;;;;5111493;27;20134;-66
2021/06/06 09:05:43;;;;;;;0.22;0.20;;;22.30;50.10;;;;;;5111004;27;20111;-67
2021/06/06 09:08:16;;;;;;;0.25;0.20;;;22.30;50.20;;;;;;5110561;27;20134;-66
2021/06/06 09:10:46;;;;;;;0.20;0.20;;;22.30;49.80;;;;;;5112796;27;20491;-67
2021/06/06 09:13:15;;;;;;;0.20;0.20;;;22.30;50.30;;;;;;5111115;27;20088;-66
2021/06/06 09:15:42;;;;;;;0.13;0.13;;;22.40;50.10;;;;;;5115639;27;20039;-66
2021/06/06 09:18:26;;;;;;;0.10;0.10;;;22.50;50.00;;;;;;5113253;27;20082;-66
2021/06/06 09:21:06;;;;;;;0.45;0.30;;;22.60;49.70;;;;;;5113892;27;20081;-66
2021/06/06 09:23:33;;;;;;;0.30;0.25;;;22.70;49.40;;;;;;5102921;27;20047;-66
2021/06/06 09:26:13;;;;;;;0.20;0.20;;;22.90;49.20;;;;;;5111625;27;20126;-67
2021/06/06 09:28:44;;;;;;;0.10;0.10;;;23.10;49.00;;;;;;5111785;27;20056;-67
2021/06/06 09:31:21;;;;;;;0.38;0.38;;;23.20;48.40;;;;;;5092106;28;20495;-67
2021/06/06 09:33:54;;;;;;;0.20;0.20;;;23.10;47.60;;;;;;5113216;28;20044;-67
2021/06/06 09:36:31;;;;;;;0.10;0.10;;;23.10;48.40;;;;;;5110527;27;20130;-67
2021/06/06 09:39:04;;;;;;;0.20;0.20;;;23.20;48.40;;;;;;5112278;27;20523;-68
2021/06/06 09:41:40;;;;;;;0.20;0.20;;;23.40;48.80;;;;;;5111148;28;20134;-67
2021/06/06 09:44:15;;;;;;;0.10;0.10;;;23.60;48.60;;;;;;5110154;28;20040;-67
2021/06/06 09:46:46;;;;;;;0.30;0.30;;;23.80;48.30;;;;;;5108766;28;20123;-67
2021/06/06 09:49:32;;;;;;;0.13;0.13;;;24.00;47.20;;;;;;5108223;28;20049;-67
2021/06/06 09:52:28;;;;;;;0.20;0.20;;;24.20;47.20;;;;;;5110114;28;20052;-67
2021/06/06 09:54:58;;;;;;;1.10;0.38;;;24.30;46.40;;;;;;5110726;28;20424;-68
2021/06/06 09:57:32;;;;;;;0.30;0.30;;;24.30;46.30;;;;;;5112227;28;20165;-69
2021/06/06 10:00:11;;;;;;;0.35;0.20;;;24.40;46.30;;;;;;5111854;27;20059;-68
2021/06/06 10:02:46;;;;;;;0.10;0.10;;;24.40;46.70;;;;;;5113777;27;20052;-68
2021/06/06 10:05:30;;;;;;;0.30;0.28;;;24.50;45.50;;;;;;5114095;27;20039;-69
2021/06/06 10:08:14;;;;;;;0.30;0.30;;;24.50;45.50;;;;;;5107440;27;20096;-69
2021/06/06 10:10:43;;;;;;;0.20;0.20;;;24.40;45.70;;;;;;5126315;27;20112;-69
2021/06/06 10:13:17;;;;;;;0.13;0.10;;;24.40;46.30;;;;;;5115971;27;20040;-69
2021/06/06 10:15:51;;;;;;;0.20;0.20;;;24.30;46.30;;;;;;5117491;27;20170;-70
2021/06/06 10:18:30;;;;;;;0.05;0.05;;;24.20;46.30;;;;;;5115414;27;20172;-69
2021/06/06 10:21:20;;;;;;;0.30;0.13;;;24.00;46.50;;;;;;5117299;27;20076;-69
2021/06/06 10:23:54;;;;;;;0.10;0.10;;;23.90;47.30;;;;;;5122500;27;20124;-72
2021/06/06 10:26:41;;;;;;;0.20;0.20;;;23.70;47.00;;;;;;5102098;27;20036;-68
2021/06/06 10:29:47;;;;;;;0.73;0.10;;;23.60;48.10;;;;;;5108183;28;20040;-67
2021/06/06 10:32:22;;;;;;;0.40;0.20;;;23.60;48.70;;;;;;5017554;28;20041;-68
2021/06/06 10:35:01;;;;;;;0.10;0.10;;;23.60;48.20;;;;;;5025015;28;20045;-69
2021/06/06 10:37:30;;;;;;;0.80;0.20;;;23.50;47.50;;;;;;5034546;28;20064;-68
2021/06/06 10:40:07;;;;;;;0.30;0.30;;;23.30;47.70;;;;;;5050111;28;20527;-68
2021/06/06 10:42:43;;;;;;;0.70;0.70;;;23.20;48.30;;;;;;5025745;28;20525;-69
2021/06/06 10:45:24;;;;;;;1.30;1.20;;;23.10;48.60;;;;;;5015729;28;20042;-68
2021/06/06 10:48:19;;;;;;;1.73;1.63;;;23.00;48.80;;;;;;5036349;28;20053;-67
2021/06/06 10:50:48;;;;;;;1.25;1.20;;;22.90;48.90;;;;;;5012660;28;20528;-69
2021/06/06 10:53:25;;;;;;;0.80;0.80;;;22.80;49.70;;;;;;5028644;28;20041;-69
2021/06/06 10:55:51;;;;;;;0.40;0.40;;;22.80;50.50;;;;;;5043313;28;20152;-68
2021/06/06 10:58:30;;;;;;;0.30;0.30;;;22.70;50.40;;;;;;5049729;28;20049;-71
2021/06/06 11:01:17;;;;;;;0.60;0.60;;;22.70;50.00;;;;;;5042324;28;20049;-70
2021/06/06 11:03:49;;;;;;;3.65;3.00;;;22.60;50.10;;;;;;5032803;28;20535;-69
2021/06/06 11:06:28;;;;;;;1.90;1.80;;;22.60;50.00;;;;;;5073728;27;20126;-68
2021/06/06 11:08:56;;;;;;;1.42;1.33;;;22.50;50.40;;;;;;5115915;27;20043;-69
2021/06/06 11:11:27;;;;;;;2.05;1.90;;;22.50;50.30;;;;;;5115393;27;20047;-70
2021/06/06 11:14:14;;;;;;;1.60;1.50;;;22.40;50.40;;;;;;5114828;27;20126;-70
2021/06/06 11:16:53;;;;;;;1.30;1.20;;;22.40;50.70;;;;;;5112201;28;20169;-71
2021/06/06 11:19:19;;;;;;;1.02;0.93;;;22.40;50.90;;;;;;5118922;27;20039;-72
2021/06/06 11:21:56;;;;;;;0.77;0.77;;;22.40;51.00;;;;;;5120164;27;20125;-70
2021/06/06 11:24:32;;;;;;;0.40;0.40;;;22.40;51.10;;;;;;5125021;27;20557;-71
2021/06/06 11:27:06;;;;;;;0.28;0.28;;;22.40;50.90;;;;;;5119996;27;20043;-73
2021/06/06 11:29:55;;;;;;;0.20;0.20;;;22.50;50.70;;;;;;5101032;28;20039;-71
2021/06/06 11:32:54;;;;;;;0.17;0.17;;;22.50;50.70;;;;;;5120980;27;20086;-71
2021/06/06 11:35:47;;;;;;;0.30;0.30;;;22.50;50.60;;;;;;5119823;27;20192;-71
2021/06/06 11:38:32;;;;;;;0.10;0.10;;;22.50;50.50;;;;;;5112804;27;20446;-65
2021/06/06 11:41:33;;;;;;;0.15;0.15;;;22.50;50.70;;;;;;5099783;28;20051;-65
2021/06/06 11:44:18;;;;;;;0.10;0.10;;;22.50;50.90;;;;;;5043569;28;20177;-65
2021/06/06 11:47:06;;;;;;;0.20;0.20;;;22.50;50.40;;;;;;5049378;28;20049;-65
2021/06/06 11:49:46;;;;;;;0.13;0.13;;;22.40;49.70;;;;;;5048117;28;20052;-65
2021/06/06 11:52:45;;;;;;;0.10;0.10;;;22.30;50.20;;;;;;5047023;28;20041;-65
2021/06/06 11:55:32;;;;;;;0.10;0.10;;;22.30;50.50;;;;;;5043719;28;20049;-65
2021/06/06 11:58:10;;;;;;;0.20;0.15;;;22.20;50.80;;;;;;5053640;28;20059;-65
2021/06/06 12:00:45;;;;;;;0.00;0.00;;;22.20;51.00;;;;;;5065712;28;20060;-65
2021/06/06 12:03:14;;;;;;;0.22;0.22;;;22.20;51.10;;;;;;5066079;28;20429;-65
2021/06/06 12:06:12;;;;;;;0.20;0.20;;;22.30;51.20;;;;;;5065782;28;20548;-65
2021/06/06 12:08:47;;;;;;;0.30;0.30;;;22.30;51.30;;;;;;5065911;28;20562;-64
2021/06/06 12:11:24;;;;;;;0.20;0.20;;;22.40;50.70;;;;;;5065663;28;20628;-65
2021/06/06 12:13:54;;;;;;;0.20;0.20;;;22.40;50.20;;;;;;5065532;28;20534;-67
2021/06/06 12:16:27;;;;;;;0.13;0.13;;;22.50;50.50;;;;;;5065689;28;20550;-65
2021/06/06 12:19:15;;;;;;;0.17;0.17;;;22.50;50.60;;;;;;5063487;27;20051;-65
2021/06/06 12:21:45;;;;;;;0.10;0.10;;;22.60;50.70;;;;;;5126915;27;20562;-64
2021/06/06 12:24:31;;;;;;;0.20;0.20;;;22.70;50.40;;;;;;5125239;27;20054;-64
2021/06/06 12:27:12;;;;;;;0.10;0.10;;;22.70;50.50;;;;;;5125779;27;20417;-64
2021/06/06 12:29:44;;;;;;;;;;;22.70;50.10;;;;;;5101367;28;20158;-64
2021/06/06 12:32:14;;;;;;;0.20;0.20;;;22.80;50.10;;;;;;5122701;27;20065;-65
2021/06/06 12:34:41;;;;;;;0.10;0.10;;;22.90;49.90;;;;;;5125943;27;20057;-65
2021/06/06 12:37:20;;;;;;;0.22;0.10;;;23.00;49.20;;;;;;5117182;27;20079;-65
2021/06/06 12:39:50;;;;;;;0.15;0.15;;;23.00;49.20;;;;;;5113198;27;20095;-65
2021/06/06 12:42:17;;;;;;;0.10;0.10;;;23.00;48.80;;;;;;5113855;27;20048;-65
2021/06/06 12:44:48;;;;;;;0.10;0.10;;;22.90;49.00;;;;;;5112395;27;20390;-68
2021/06/06 12:47:33;;;;;;;0.08;0.08;;;22.90;49.40;;;;;;5115049;27;20373;-68
2021/06/06 12:50:19;;;;;;;0.10;0.10;;;22.90;49.60;;;;;;5108049;27;20125;-68
2021/06/06 12:52:57;;;;;;;0.22;0.20;;;22.70;49.80;;;;;;5123089;27;20040;-67
2021/06/06 12:55:40;;;;;;;0.10;0.10;;;22.60;50.30;;;;;;5120186;27;20530;-68
2021/06/06 12:58:14;;;;;;;0.13;0.10;;;22.60;50.70;;;;;;5113658;27;20506;-67
2021/06/06 13:00:42;;;;;;;0.10;0.10;;;22.50;51.10;;;;;;5102061;27;20086;-67
2021/06/06 13:03:31;;;;;;;1.30;0.10;;;22.50;51.50;;;;;;5129816;27;20135;-67
2021/06/06 13:06:12;;;;;;;0.00;0.00;;;22.50;52.50;;;;;;5128811;27;20051;-67
2021/06/06 13:08:39;;;;;;;0.10;0.10;;;22.40;51.50;;;;;;5115704;27;20091;-67
2021/06/06 13:11:21;;;;;;;0.10;0.10;;;22.40;51.90;;;;;;5124006;27;20593;-66
2021/06/06 13:14:04;;;;;;;0.10;0.10;;;22.40;51.90;;;;;;5116851;27;20571;-67
2021/06/06 13:16:46;;;;;;;0.10;0.10;;;22.40;51.90;;;;;;5123002;27;20056;-67